Time;durP1;ratioP1;P1;durP2;ratioP2;P2;SDS_P1;SDS_P2;PMS_P1;PMS_P2;Temp;Humidity;BMP_temperature;BMP_pressure;BME280_temperature;BME280_humidity;BME280_pressure;Samples;Min_cycle;Max_cycle;Signal;HPM_P1;HPM_P2
2022/01/14 00:02:14;;;;;;;48.28;17.58;;;6.50;72.90;;;;;;6116388;23;20030;-94
2022/01/14 00:04:40;;;;;;;28.92;14.80;;;6.50;72.90;;;;;;6089046;23;20013;-94
2022/01/14 00:07:07;;;;;;;29.75;14.68;;;6.50;73.00;;;;;;6089495;23;20016;-93
2022/01/14 00:09:34;;;;;;;29.65;13.55;;;6.80;73.10;;;;;;6090713;23;20068;-94
2022/01/14 00:12:04;;;;;;;26.00;12.98;;;6.50;72.80;;;;;;6092095;23;20013;-94
2022/01/14 00:14:43;;;;;;;23.88;12.57;;;7.00;73.10;;;;;;6088713;23;20089;-94
2022/01/14 00:17:14;;;;;;;31.23;14.45;;;6.50;72.80;;;;;;6112430;23;20021;-93
2022/01/14 00:19:41;;;;;;;26.30;11.88;;;6.50;72.70;;;;;;6088804;23;20014;-94
2022/01/14 00:22:12;;;;;;;24.10;11.82;;;6.50;72.70;;;;;;6090859;23;20117;-93
2022/01/14 00:33:08;;;;;;;20.85;10.27;;;6.40;72.40;;;;;;6097409;23;20580;-94
2022/01/14 00:35:41;;;;;;;27.80;11.82;;;6.60;72.60;;;;;;6116920;23;20017;-93
2022/01/14 00:38:08;;;;;;;25.92;11.48;;;6.30;72.40;;;;;;6113803;23;20341;-94
2022/01/14 00:40:34;;;;;;;26.20;12.23;;;6.30;72.50;;;;;;6089067;23;20029;-93
2022/01/14 00:43:00;;;;;;;27.48;12.70;;;6.30;72.60;;;;;;6114856;23;20222;-93
2022/01/14 00:45:26;;;;;;;27.13;14.00;;;6.30;72.60;;;;;;6112543;23;20452;-94
2022/01/14 00:47:52;;;;;;;21.20;10.95;;;6.30;72.60;;;;;;6112862;23;20006;-96
2022/01/14 00:50:21;;;;;;;21.30;10.93;;;6.80;72.80;;;;;;6094210;23;20006;-93
2022/01/14 00:52:47;;;;;;;19.42;9.93;;;6.30;72.50;;;;;;6129494;23;20096;-93
2022/01/14 00:55:26;;;;;;;20.02;9.70;;;6.30;72.40;;;;;;6109534;23;20036;-92
2022/01/14 01:00:31;;;;;;;23.92;10.48;;;6.30;72.40;;;;;;6168597;23;20013;-94
2022/01/14 01:02:57;;;;;;;22.45;10.60;;;6.30;72.30;;;;;;6168992;23;20001;-94
2022/01/14 01:05:23;;;;;;;22.58;9.48;;;6.50;72.40;;;;;;6169194;23;20020;-94
2022/01/14 01:08:04;;;;;;;20.95;11.02;;;6.20;72.30;;;;;;6168366;23;20019;-94
2022/01/14 01:10:31;;;;;;;19.95;9.35;;;6.20;72.30;;;;;;6146753;23;20505;-94
2022/01/14 01:13:48;;;;;;;24.88;10.30;;;6.80;72.60;;;;;;6169711;23;20096;-94
2022/01/14 01:15:43;;;;;;;21.63;10.02;;;6.20;72.40;;;;;;6146809;23;20020;-93
2022/01/14 01:18:09;;;;;;;22.88;9.93;;;6.20;72.50;;;;;;6168635;23;20024;-94
2022/01/14 01:20:35;;;;;;;22.67;11.13;;;6.20;72.40;;;;;;6165013;23;20014;-95
2022/01/14 01:23:00;;;;;;;22.23;10.95;;;6.20;72.40;;;;;;6169356;23;20036;-93
2022/01/14 01:25:30;;;;;;;27.77;12.35;;;6.40;72.40;;;;;;6169338;23;20009;-94
2022/01/14 01:27:56;;;;;;;31.25;12.40;;;6.20;72.20;;;;;;6170406;23;20009;-93
2022/01/14 01:32:55;;;;;;;25.00;11.27;;;6.40;72.10;;;;;;6169396;23;20016;-94
2022/01/14 01:35:21;;;;;;;25.10;11.35;;;6.60;72.30;;;;;;6142748;23;20087;-94
2022/01/14 01:37:46;;;;;;;27.17;11.73;;;6.60;72.20;;;;;;6167745;23;20194;-93
2022/01/14 01:40:14;;;;;;;26.60;12.20;;;6.20;72.10;;;;;;6141644;23;20512;-93
2022/01/14 01:42:44;;;;;;;30.13;14.80;;;6.20;72.10;;;;;;6146120;23;20005;-94
2022/01/14 01:45:21;;;;;;;32.42;15.60;;;6.20;72.10;;;;;;6168398;23;20017;-93
2022/01/14 01:47:50;;;;;;;32.92;15.45;;;6.20;72.10;;;;;;6168119;23;20013;-94
2022/01/14 01:50:26;;;;;;;26.17;12.32;;;6.20;72.00;;;;;;6167798;23;20036;-94
2022/01/14 01:52:53;;;;;;;24.77;10.98;;;6.20;71.90;;;;;;6144096;23;20507;-93
2022/01/14 01:55:22;;;;;;;22.23;10.38;;;6.10;71.80;;;;;;6165569;23;20033;-94
2022/01/14 01:57:49;;;;;;;22.63;11.15;;;6.10;71.90;;;;;;6143186;23;20055;-94
2022/01/14 02:00:20;;;;;;;22.48;10.07;;;6.10;71.90;;;;;;6144035;23;20040;-93
2022/01/14 02:02:48;;;;;;;38.03;16.70;;;6.10;71.90;;;;;;6166411;23;20033;-93
2022/01/14 02:05:14;;;;;;;50.25;19.85;;;6.40;72.10;;;;;;6143512;23;20164;-93
2022/01/14 02:07:40;;;;;;;30.63;14.32;;;6.10;72.10;;;;;;6167454;23;20020;-94
2022/01/14 02:10:07;;;;;;;24.38;11.45;;;6.10;72.10;;;;;;6141218;23;20384;-94
2022/01/14 02:12:38;;;;;;;27.75;11.30;;;6.10;72.10;;;;;;6166517;23;20009;-93
2022/01/14 02:15:12;;;;;;;29.15;13.15;;;6.10;72.00;;;;;;6165747;23;20399;-93
2022/01/14 02:23:08;;;;;;;20.40;9.57;;;6.50;72.20;;;;;;6167421;23;20067;-94
2022/01/14 02:25:34;;;;;;;21.67;10.82;;;6.00;71.90;;;;;;6168711;23;20491;-94
2022/01/14 02:28:06;;;;;;;24.27;11.93;;;6.00;71.90;;;;;;6162892;23;20005;-92
2022/01/14 02:30:39;;;;;;;26.45;12.73;;;6.00;72.00;;;;;;6184267;23;20024;-94
2022/01/14 02:33:05;;;;;;;37.15;15.60;;;5.90;72.00;;;;;;6168523;23;20115;-94
2022/01/14 02:35:31;;;;;;;41.90;21.35;;;6.40;72.40;;;;;;6166069;23;20460;-94
2022/01/14 02:37:57;;;;;;;35.85;16.83;;;6.00;72.20;;;;;;6167593;23;20009;-94
2022/01/14 02:40:25;;;;;;;38.00;15.35;;;6.30;72.30;;;;;;6142703;23;20020;-94
2022/01/14 02:42:51;;;;;;;32.58;15.68;;;6.50;72.30;;;;;;6167025;23;20009;-94
2022/01/14 02:45:18;;;;;;;29.98;13.52;;;6.00;72.10;;;;;;6142243;23;20013;-93
2022/01/14 02:47:45;;;;;;;26.60;12.63;;;6.00;72.00;;;;;;6168481;23;20031;-95
2022/01/14 02:50:19;;;;;;;23.58;11.07;;;6.00;72.00;;;;;;6167153;23;20020;-92
2022/01/14 02:55:19;;;;;;;27.10;10.93;;;6.00;72.00;;;;;;6167161;23;20503;-93
2022/01/14 02:57:48;;;;;;;20.77;9.70;;;6.00;71.90;;;;;;6144562;23;20060;-92
2022/01/14 03:00:18;;;;;;;19.73;8.43;;;6.10;71.80;;;;;;6168032;23;20037;-93
2022/01/14 03:02:49;;;;;;;19.52;9.80;;;6.10;71.70;;;;;;6159473;23;20005;-93
2022/01/14 03:05:18;;;;;;;23.48;10.40;;;6.10;71.70;;;;;;6180860;23;20020;-92
2022/01/14 03:07:46;;;;;;;18.15;9.00;;;6.10;71.70;;;;;;6151691;23;20459;-93
2022/01/14 03:10:15;;;;;;;21.63;8.63;;;6.10;71.60;;;;;;6143216;23;20016;-94
2022/01/14 03:12:43;;;;;;;20.70;8.95;;;6.00;71.50;;;;;;6169469;23;20016;-94
2022/01/14 03:15:14;;;;;;;20.63;9.23;;;6.10;71.60;;;;;;6166855;23;20103;-94
2022/01/14 03:17:40;;;;;;;20.52;9.07;;;6.10;71.50;;;;;;6167498;23;20009;-94
2022/01/14 03:20:10;;;;;;;20.67;8.63;;;6.00;71.40;;;;;;6144741;23;20040;-93
2022/01/14 03:22:36;;;;;;;21.33;10.02;;;6.00;71.40;;;;;;6166960;23;20337;-94
2022/01/14 07:12:33;;;;;;;37.17;13.35;;;5.50;71.90;;;;;;6177284;23;20379;-91
2022/01/14 07:14:59;;;;;;;36.50;13.98;;;5.50;71.90;;;;;;6087006;23;20025;-91
2022/01/14 07:17:27;;;;;;;38.92;15.35;;;5.50;72.00;;;;;;6113785;23;20483;-93
2022/01/14 07:19:55;;;;;;;27.30;12.88;;;5.50;72.00;;;;;;6112318;23;20020;-91
2022/01/14 07:22:21;;;;;;;29.73;12.30;;;5.50;72.10;;;;;;6112643;23;20025;-90
2022/01/14 07:24:47;;;;;;;29.80;13.50;;;5.50;72.10;;;;;;6120249;23;20029;-91
2022/01/14 07:27:14;;;;;;;30.90;13.93;;;5.70;72.20;;;;;;6092805;23;20013;-91
2022/01/14 07:29:41;;;;;;;32.72;14.15;;;5.50;72.00;;;;;;6118207;23;20013;-91
2022/01/14 07:32:07;;;;;;;35.88;15.38;;;5.50;72.00;;;;;;6116486;23;20048;-91
2022/01/14 07:34:34;;;;;;;41.10;15.25;;;5.50;72.00;;;;;;6111583;23;20009;-91
2022/01/14 07:37:00;;;;;;;42.25;15.52;;;5.50;72.00;;;;;;6091746;23;20014;-91
2022/01/14 07:39:27;;;;;;;40.92;16.25;;;5.90;72.20;;;;;;6114783;23;20017;-91
2022/01/14 07:41:54;;;;;;;36.20;15.82;;;5.50;72.00;;;;;;6113509;23;20068;-90
2022/01/14 07:44:21;;;;;;;32.08;13.10;;;5.50;72.10;;;;;;6089458;23;20834;-91
2022/01/14 07:46:47;;;;;;;36.00;13.52;;;5.50;71.80;;;;;;6111462;23;20445;-91
2022/01/14 07:49:14;;;;;;;32.35;11.77;;;5.90;72.60;;;;;;6087636;23;20013;-90
2022/01/14 07:51:40;;;;;;;26.95;10.77;;;5.50;71.80;;;;;;6088148;23;20013;-91
2022/01/14 07:54:06;;;;;;;24.58;10.00;;;5.50;71.90;;;;;;6084393;23;20009;-91
2022/01/14 07:56:38;;;;;;;30.70;13.70;;;5.90;72.10;;;;;;6107953;23;20056;-91
2022/01/14 07:59:06;;;;;;;35.47;16.10;;;5.50;71.90;;;;;;6109178;23;20013;-91
2022/01/14 08:01:35;;;;;;;33.42;15.27;;;5.50;72.00;;;;;;6106336;23;20028;-90
2022/01/14 08:04:01;;;;;;;37.40;19.33;;;5.50;72.00;;;;;;6089511;23;20005;-91
2022/01/14 08:06:31;;;;;;;33.65;15.07;;;5.50;72.00;;;;;;6112116;23;20080;-90
2022/01/14 08:08:57;;;;;;;60.33;24.98;;;5.90;72.20;;;;;;6088727;23;20093;-91
2022/01/14 08:11:23;;;;;;;47.25;19.73;;;5.50;72.00;;;;;;6088574;23;20037;-91
2022/01/14 08:13:48;;;;;;;39.85;17.35;;;5.60;72.10;;;;;;6146587;23;20032;-91
2022/01/14 08:16:14;;;;;;;32.85;14.85;;;5.60;71.90;;;;;;6162135;23;20025;-91
2022/01/14 08:18:40;;;;;;;31.60;13.88;;;5.90;72.00;;;;;;6137258;23;20017;-91
2022/01/14 08:21:06;;;;;;;37.92;15.88;;;5.60;71.70;;;;;;6164365;23;20005;-91
2022/01/14 08:23:31;;;;;;;40.22;14.60;;;5.60;71.60;;;;;;6168241;23;20024;-91
2022/01/14 08:25:57;;;;;;;29.88;13.32;;;5.70;71.70;;;;;;6165393;23;20005;-91
2022/01/14 08:28:27;;;;;;;36.20;16.33;;;5.70;71.70;;;;;;6165181;23;20325;-90
2022/01/14 08:30:56;;;;;;;33.58;17.27;;;6.00;71.80;;;;;;6142666;23;20048;-91
2022/01/14 08:33:23;;;;;;;35.75;19.25;;;5.70;71.80;;;;;;6168435;23;20352;-91
2022/01/14 08:35:49;;;;;;;36.28;17.05;;;5.60;71.60;;;;;;6165322;23;20068;-91
2022/01/14 08:38:14;;;;;;;34.78;16.00;;;5.60;72.10;;;;;;6167465;23;20415;-91
2022/01/14 08:40:40;;;;;;;39.38;19.70;;;5.90;71.70;;;;;;6176013;23;20040;-91
2022/01/14 08:43:07;;;;;;;37.65;17.92;;;5.60;71.60;;;;;;6173509;23;20005;-91
2022/01/14 08:45:35;;;;;;;29.75;13.82;;;5.70;71.50;;;;;;6139616;23;20296;-91
2022/01/14 08:48:01;;;;;;;29.55;13.77;;;5.70;71.50;;;;;;6164872;23;20001;-90
2022/01/14 08:50:31;;;;;;;33.42;14.02;;;5.60;71.40;;;;;;6166984;23;20009;-90
2022/01/14 08:52:59;;;;;;;48.25;18.55;;;5.60;71.30;;;;;;6162801;23;20410;-91
2022/01/14 08:55:25;;;;;;;47.35;19.65;;;5.70;71.40;;;;;;6166763;23;20009;-91
2022/01/14 08:57:51;;;;;;;28.65;14.18;;;5.70;71.50;;;;;;6165007;23;20020;-91
2022/01/14 09:00:21;;;;;;;37.80;16.15;;;5.70;71.40;;;;;;6166704;23;20068;-91
2022/01/14 09:02:47;;;;;;;28.55;13.57;;;6.20;71.70;;;;;;6165357;23;20071;-90
2022/01/14 09:05:13;;;;;;;24.15;13.00;;;5.80;71.70;;;;;;6166140;23;20001;-92
2022/01/14 09:07:40;;;;;;;26.55;11.95;;;5.60;71.40;;;;;;6166334;23;20357;-91
2022/01/14 09:10:10;;;;;;;25.75;12.82;;;5.60;71.50;;;;;;6166648;23;20016;-91
2022/01/14 09:12:36;;;;;;;29.95;13.27;;;5.70;71.60;;;;;;6166212;23;20031;-91
2022/01/14 09:15:03;;;;;;;29.80;13.88;;;6.00;71.80;;;;;;6165066;23;20019;-90
2022/01/14 09:17:29;;;;;;;24.25;11.80;;;5.70;71.70;;;;;;6166098;23;20017;-91
2022/01/14 09:19:55;;;;;;;23.27;12.27;;;6.00;71.90;;;;;;6167142;23;20499;-90
2022/01/14 09:22:22;;;;;;;21.02;11.77;;;5.60;71.90;;;;;;6141445;23;20023;-92
2022/01/14 09:24:48;;;;;;;25.38;11.73;;;5.70;71.80;;;;;;6167503;23;20028;-91
2022/01/14 09:27:15;;;;;;;22.42;10.35;;;5.70;71.80;;;;;;6166536;23;20017;-90
2022/01/14 09:29:42;;;;;;;20.25;10.48;;;5.90;72.00;;;;;;6166954;23;20218;-90
2022/01/14 09:32:10;;;;;;;21.58;11.57;;;5.70;71.90;;;;;;6166201;23;20096;-91
2022/01/14 09:34:38;;;;;;;23.17;10.77;;;5.70;71.90;;;;;;6170960;23;20016;-91
2022/01/14 09:37:04;;;;;;;25.60;12.40;;;5.60;72.00;;;;;;6169170;23;20523;-91
2022/01/14 09:39:34;;;;;;;23.30;10.93;;;5.60;72.00;;;;;;6166939;23;20084;-91
2022/01/14 09:42:00;;;;;;;25.60;11.75;;;5.60;72.20;;;;;;6167525;23;20044;-91
2022/01/14 09:44:26;;;;;;;23.92;11.85;;;5.60;72.40;;;;;;6163799;23;20349;-90
2022/01/14 09:46:53;;;;;;;22.23;11.15;;;5.70;72.40;;;;;;6165325;23;20091;-91
2022/01/14 09:49:20;;;;;;;26.92;12.80;;;5.70;72.50;;;;;;6165651;23;20016;-91
2022/01/14 09:51:46;;;;;;;27.92;13.00;;;5.70;73.30;;;;;;6141578;23;20385;-91
2022/01/14 09:54:12;;;;;;;27.73;13.82;;;5.60;72.90;;;;;;6141867;23;20008;-90
2022/01/14 09:56:39;;;;;;;25.98;12.57;;;5.90;73.20;;;;;;6166063;23;20071;-90
2022/01/14 09:59:06;;;;;;;24.20;11.88;;;6.20;74.20;;;;;;6166552;23;20377;-91
2022/01/14 10:01:41;;;;;;;25.60;11.80;;;5.70;73.40;;;;;;6166797;23;20032;-91
2022/01/14 10:04:12;;;;;;;;;;;5.70;73.80;;;;;;6169169;23;20008;-92
2022/01/14 10:06:42;;;;;;;32.40;14.05;;;5.70;73.70;;;;;;6140385;23;19915;-89
2022/01/14 10:09:21;;;;;;;32.10;13.30;;;5.70;73.60;;;;;;6190036;23;20020;-91
2022/01/14 10:12:13;;;;;;;24.85;12.25;;;5.70;73.80;;;;;;6193494;23;20013;-90
2022/01/14 10:14:43;;;;;;;28.95;12.25;;;5.70;74.00;;;;;;6169691;23;20087;-91
2022/01/14 10:17:11;;;;;;;22.85;11.73;;;5.70;73.90;;;;;;6169972;23;20063;-90
2022/01/14 10:19:41;;;;;;;32.45;15.02;;;5.70;74.00;;;;;;6144286;23;20108;-91
2022/01/14 10:22:27;;;;;;;30.38;12.98;;;6.30;74.40;;;;;;6170533;23;20009;-91
2022/01/14 10:25:05;;;;;;;25.38;13.32;;;5.80;74.30;;;;;;6169230;23;20069;-92
2022/01/14 10:27:40;;;;;;;28.42;13.20;;;5.80;74.30;;;;;;6194035;23;20028;-90
2022/01/14 10:30:33;;;;;;;28.73;14.43;;;5.80;74.40;;;;;;6193550;23;20016;-91
2022/01/14 10:33:07;;;;;;;33.42;13.82;;;5.90;74.70;;;;;;6166705;23;20052;-90
2022/01/14 10:35:46;;;;;;;28.50;12.80;;;5.90;74.60;;;;;;6193447;23;20100;-91
2022/01/14 10:38:18;;;;;;;28.58;14.02;;;5.90;74.80;;;;;;6170303;23;20016;-91
2022/01/14 10:40:51;;;;;;;27.25;13.30;;;5.90;75.10;;;;;;6144217;23;20016;-90
2022/01/14 10:43:24;;;;;;;22.70;11.90;;;5.90;75.50;;;;;;6168086;23;20028;-90
2022/01/14 10:45:51;;;;;;;26.60;11.35;;;5.90;75.80;;;;;;6167762;23;20001;-91
2022/01/14 10:48:32;;;;;;;24.40;12.68;;;5.90;75.80;;;;;;6168467;23;20088;-91
2022/01/14 10:51:10;;;;;;;29.50;13.88;;;5.90;75.90;;;;;;6169912;23;20009;-91
2022/01/14 10:53:42;;;;;;;29.73;15.55;;;6.30;76.10;;;;;;6170177;23;20040;-91
2022/01/14 10:56:12;;;;;;;32.40;15.95;;;5.90;76.10;;;;;;6166729;23;20013;-92
2022/01/14 10:58:59;;;;;;;28.25;13.23;;;6.00;76.20;;;;;;6169396;23;20029;-90
2022/01/14 11:01:26;;;;;;;25.35;12.20;;;6.00;76.40;;;;;;6167617;23;20040;-91
2022/01/14 11:04:00;;;;;;;26.40;12.77;;;6.40;76.40;;;;;;6168680;23;20005;-91
2022/01/14 11:06:30;;;;;;;32.67;15.43;;;6.50;76.50;;;;;;6143650;23;20076;-90
2022/01/14 11:09:07;;;;;;;25.52;12.15;;;6.10;76.20;;;;;;6193036;23;20093;-91
2022/01/14 11:11:36;;;;;;;30.52;13.23;;;6.10;76.40;;;;;;6169129;23;20013;-91
2022/01/14 11:14:03;;;;;;;23.65;12.55;;;6.60;76.70;;;;;;6169757;23;20067;-91
2022/01/14 11:16:30;;;;;;;28.58;11.85;;;6.10;76.50;;;;;;6169256;23;20009;-94
2022/01/14 11:18:59;;;;;;;30.15;13.60;;;6.10;76.50;;;;;;6168082;23;20036;-93
2022/01/14 11:24:14;;;;;;;30.63;13.97;;;6.60;76.90;;;;;;6168474;23;20084;-91
2022/01/14 11:26:40;;;;;;;28.67;12.85;;;6.20;76.60;;;;;;6166917;23;20009;-92
2022/01/14 11:29:15;;;;;;;22.35;12.23;;;6.20;76.80;;;;;;6168599;23;20128;-91
2022/01/14 11:31:42;;;;;;;20.90;10.90;;;6.20;76.80;;;;;;6168117;23;20436;-91
2022/01/14 11:34:31;;;;;;;26.38;11.80;;;6.30;76.80;;;;;;6143220;23;20040;-90
2022/01/14 11:37:03;;;;;;;25.35;12.90;;;6.30;76.90;;;;;;6163927;23;20013;-91
2022/01/14 11:39:36;;;;;;;28.10;14.13;;;6.30;76.90;;;;;;6167728;23;20457;-91
2022/01/14 11:42:14;;;;;;;27.98;13.80;;;6.30;76.90;;;;;;6175455;23;20016;-90
2022/01/14 11:44:52;;;;;;;33.95;14.27;;;6.30;77.00;;;;;;6147860;23;20001;-91
2022/01/14 11:47:24;;;;;;;27.85;13.13;;;6.30;77.00;;;;;;6199047;23;20029;-90
2022/01/14 11:49:57;;;;;;;31.48;12.77;;;6.40;77.10;;;;;;6196851;23;20017;-91
2022/01/14 11:52:41;;;;;;;27.00;12.90;;;6.40;77.30;;;;;;6169240;23;20024;-92
2022/01/14 11:55:21;;;;;;;24.83;11.40;;;6.40;77.10;;;;;;6170442;23;20009;-92
2022/01/14 11:58:03;;;;;;;24.23;11.13;;;6.40;77.10;;;;;;6196332;23;20104;-92
2022/01/14 12:00:33;;;;;;;22.73;9.80;;;6.40;77.00;;;;;;6167100;23;20009;-91
2022/01/14 12:03:10;;;;;;;24.00;10.70;;;6.50;76.90;;;;;;6168695;23;20459;-93
2022/01/14 12:06:38;;;;;;;24.52;10.85;;;6.40;76.90;;;;;;6194007;23;20235;-90
2022/01/14 12:09:03;;;;;;;28.33;12.23;;;6.60;77.50;;;;;;6128461;23;20020;-91
2022/01/14 12:11:29;;;;;;;22.52;11.45;;;6.50;77.00;;;;;;6169477;23;20013;-91
2022/01/14 12:14:03;;;;;;;22.90;11.07;;;6.60;77.00;;;;;;6165974;23;20004;-90
2022/01/14 12:16:47;;;;;;;29.23;11.98;;;6.70;76.90;;;;;;6142635;23;20067;-90
2022/01/14 12:19:22;;;;;;;32.03;12.95;;;6.80;77.00;;;;;;6165562;23;20040;-92
2022/01/14 12:21:49;;;;;;;;;;;6.50;76.80;;;;;;6169077;23;20017;-92
2022/01/14 12:24:14;;;;;;;25.17;11.32;;;6.80;76.90;;;;;;6166569;23;19915;-91
2022/01/14 12:26:44;;;;;;;29.90;12.75;;;6.50;76.70;;;;;;6193955;23;20017;-91
2022/01/14 12:29:14;;;;;;;31.70;14.13;;;6.90;76.90;;;;;;6166612;23;20099;-91
2022/01/14 12:32:05;;;;;;;29.17;12.75;;;6.50;76.70;;;;;;6167061;23;20400;-91
2022/01/14 12:34:33;;;;;;;27.70;13.02;;;6.50;76.60;;;;;;6193295;23;20044;-91
2022/01/14 12:36:59;;;;;;;25.50;11.75;;;6.50;76.50;;;;;;6166592;23;20063;-91
2022/01/14 12:39:25;;;;;;;30.85;13.77;;;6.50;76.60;;;;;;6136273;23;20427;-91
2022/01/14 12:41:52;;;;;;;27.13;11.25;;;6.50;76.70;;;;;;6138777;23;20013;-90
2022/01/14 12:44:21;;;;;;;22.23;10.63;;;6.50;76.60;;;;;;6160293;23;20085;-91
2022/01/14 12:46:54;;;;;;;24.98;11.38;;;6.50;76.70;;;;;;6164593;23;20115;-91
2022/01/14 12:49:30;;;;;;;27.80;10.93;;;6.50;76.70;;;;;;6165795;23;20016;-91
2022/01/14 12:52:01;;;;;;;25.38;11.30;;;6.50;76.70;;;;;;6165397;23;20029;-91
2022/01/14 12:54:39;;;;;;;27.15;12.95;;;6.50;76.70;;;;;;6161991;23;20333;-91
2022/01/14 12:57:05;;;;;;;24.20;10.75;;;6.60;76.80;;;;;;6128795;23;20013;-91
2022/01/14 12:59:42;;;;;;;26.98;11.23;;;6.50;76.70;;;;;;6130651;23;20016;-92
2022/01/14 13:02:18;;;;;;;23.88;11.55;;;6.60;76.80;;;;;;6191372;23;20051;-92
2022/01/14 13:04:44;;;;;;;26.75;11.63;;;6.60;76.80;;;;;;6164037;23;19993;-91
2022/01/14 13:07:11;;;;;;;20.98;10.20;;;6.60;76.80;;;;;;6168345;23;20027;-91
2022/01/14 13:09:40;;;;;;;22.45;10.73;;;6.60;76.80;;;;;;6167697;23;20013;-91
2022/01/14 13:12:15;;;;;;;22.85;10.23;;;6.60;76.70;;;;;;6168493;23;20039;-91
2022/01/14 13:14:46;;;;;;;;;;;6.60;76.70;;;;;;6170683;23;20076;-91
2022/01/14 13:17:24;;;;;;;21.27;9.43;;;6.50;76.70;;;;;;6170159;23;19963;-91
2022/01/14 13:19:50;;;;;;;22.20;8.88;;;6.60;76.50;;;;;;6165934;23;20037;-91
2022/01/14 13:22:19;;;;;;;21.60;9.00;;;6.60;76.50;;;;;;6164104;23;20322;-91
2022/01/14 13:24:49;;;;;;;27.65;11.23;;;7.00;76.70;;;;;;6167341;23;20005;-90
2022/01/14 13:27:23;;;;;;;29.08;12.25;;;6.70;76.50;;;;;;6163582;23;20013;-91
2022/01/14 13:30:01;;;;;;;24.85;10.13;;;7.00;76.70;;;;;;6138319;23;20072;-91
2022/01/14 13:32:35;;;;;;;21.55;10.10;;;6.70;76.50;;;;;;6189885;23;20017;-91
2022/01/14 13:35:25;;;;;;;27.85;11.38;;;6.70;76.50;;;;;;6143904;23;20009;-91
2022/01/14 13:37:58;;;;;;;25.90;11.27;;;6.60;76.50;;;;;;6193045;23;20013;-90
2022/01/14 13:40:29;;;;;;;24.40;11.65;;;6.70;76.60;;;;;;6169100;23;20041;-90
2022/01/14 13:43:23;;;;;;;23.10;9.80;;;6.70;76.50;;;;;;6165481;23;20024;-89
2022/01/14 13:45:55;;;;;;;18.25;9.38;;;7.00;76.70;;;;;;6165925;23;20005;-90
2022/01/14 13:48:24;;;;;;;28.20;12.43;;;6.70;76.40;;;;;;6168552;23;20529;-89
2022/01/14 13:50:56;;;;;;;28.58;12.45;;;7.00;76.60;;;;;;6142077;23;20013;-91
2022/01/14 13:53:28;;;;;;;26.15;11.07;;;6.70;76.90;;;;;;6170594;23;20388;-92
2022/01/14 13:56:03;;;;;;;26.48;11.63;;;6.70;76.40;;;;;;6142488;23;20021;-91
2022/01/14 13:58:29;;;;;;;20.83;8.73;;;6.80;76.50;;;;;;6139778;23;20013;-90
2022/01/14 14:01:01;;;;;;;24.00;10.95;;;6.60;76.40;;;;;;6168914;23;20013;-91
2022/01/14 14:03:40;;;;;;;23.27;9.45;;;6.60;76.40;;;;;;6165320;23;20069;-90
2022/01/14 14:06:12;;;;;;;20.10;9.23;;;6.60;76.30;;;;;;6166090;23;20580;-91
2022/01/14 14:08:46;;;;;;;26.95;12.38;;;6.60;76.90;;;;;;6167523;23;20021;-91
2022/01/14 14:17:06;;;;;;;18.77;9.50;;;6.60;76.30;;;;;;6165032;23;20028;-92
2022/01/14 14:19:54;;;;;;;18.15;8.43;;;6.60;76.30;;;;;;6164720;23;20005;-91
2022/01/14 14:22:29;;;;;;;21.80;11.35;;;6.60;76.30;;;;;;6165460;23;20472;-91
2022/01/14 14:25:14;;;;;;;24.70;12.48;;;6.60;76.40;;;;;;6165511;23;20009;-91
2022/01/14 14:28:01;;;;;;;;;;;6.60;76.30;;;;;;6144359;23;20013;-91
2022/01/14 14:30:52;;;;;;;23.63;12.25;;;6.60;76.30;;;;;;6167239;23;19904;-91
2022/01/14 14:33:21;;;;;;;26.80;12.77;;;6.60;76.30;;;;;;6142343;23;20028;-90
2022/01/14 14:35:49;;;;;;;26.80;12.18;;;6.60;76.30;;;;;;6166353;23;20087;-90
2022/01/14 14:38:19;;;;;;;24.45;12.23;;;6.60;76.30;;;;;;6147491;23;20021;-91
2022/01/14 14:40:51;;;;;;;25.27;12.13;;;6.80;76.50;;;;;;6170508;23;20058;-91
2022/01/14 14:43:19;;;;;;;26.05;11.70;;;7.00;76.60;;;;;;6169832;23;20016;-91
2022/01/14 14:45:45;;;;;;;24.50;11.50;;;6.70;76.50;;;;;;6180104;23;20024;-90
2022/01/14 14:48:11;;;;;;;21.00;10.30;;;6.70;76.60;;;;;;6184349;23;20083;-94
2022/01/14 14:50:37;;;;;;;22.65;9.93;;;6.70;76.60;;;;;;6172953;23;20651;-94
2022/01/14 14:53:04;;;;;;;24.10;12.80;;;6.70;76.60;;;;;;6172380;23;20024;-89
2022/01/14 14:55:31;;;;;;;22.60;11.48;;;6.70;76.60;;;;;;6142624;23;20440;-94
2022/01/14 14:57:59;;;;;;;27.25;12.50;;;6.60;76.60;;;;;;6168182;23;20047;-96
2022/01/14 15:00:25;;;;;;;26.20;10.63;;;6.70;76.70;;;;;;6165273;23;20016;-95
2022/01/14 15:02:54;;;;;;;28.77;12.30;;;6.70;76.80;;;;;;6166185;23;20048;-95
2022/01/14 15:05:21;;;;;;;30.30;12.63;;;6.70;76.80;;;;;;6166122;23;20013;-91
2022/01/14 15:07:48;;;;;;;31.05;13.13;;;6.70;76.80;;;;;;6168379;23;20043;-96
2022/01/14 15:10:17;;;;;;;20.08;10.35;;;7.30;77.10;;;;;;6167561;23;20001;-94
2022/01/14 15:12:43;;;;;;;21.40;12.27;;;7.00;77.00;;;;;;6144034;23;20056;-96
2022/01/14 15:15:17;;;;;;;21.45;11.30;;;6.70;76.80;;;;;;6142943;23;20500;-95
2022/01/14 15:18:11;;;;;;;19.33;8.88;;;6.80;76.90;;;;;;6165088;23;20096;-95
2022/01/14 15:20:29;;;;;;;;;;;6.80;76.90;;;;;;6166885;23;20008;-96
2022/01/14 15:22:56;;;;;;;26.42;10.80;;;6.80;76.80;;;;;;6140576;23;19988;-96
2022/01/14 15:25:23;;;;;;;22.67;11.60;;;6.80;76.60;;;;;;6166574;23;20112;-95
2022/01/14 15:27:49;;;;;;;18.23;9.10;;;6.80;77.20;;;;;;6169603;23;20032;-92
2022/01/14 15:30:16;;;;;;;20.88;9.70;;;7.30;76.90;;;;;;6144986;23;20449;-95
2022/01/14 15:32:43;;;;;;;18.60;8.88;;;6.80;76.60;;;;;;6167136;23;20067;-95
2022/01/14 15:35:09;;;;;;;24.30;9.10;;;6.80;76.60;;;;;;6142246;23;20005;-91
2022/01/14 15:37:35;;;;;;;19.88;9.18;;;6.80;76.60;;;;;;6143822;23;20013;-92
2022/01/14 15:40:04;;;;;;;19.38;9.18;;;6.90;76.60;;;;;;6171962;23;20103;-91
2022/01/14 15:42:32;;;;;;;22.42;8.88;;;6.90;76.60;;;;;;6167836;23;20009;-92
2022/01/14 15:45:01;;;;;;;19.65;8.68;;;7.30;76.80;;;;;;6166385;23;20359;-93
2022/01/14 15:47:28;;;;;;;19.83;8.63;;;6.90;77.10;;;;;;6168310;23;20111;-92
2022/01/14 15:49:54;;;;;;;21.95;8.88;;;7.30;76.80;;;;;;6143902;23;20345;-91
2022/01/14 15:52:19;;;;;;;19.27;8.70;;;6.90;76.50;;;;;;6149025;23;20020;-91
2022/01/14 15:54:45;;;;;;;17.17;8.60;;;6.90;76.40;;;;;;6169723;23;20005;-92
2022/01/14 15:57:11;;;;;;;19.65;9.88;;;6.90;76.40;;;;;;6146520;23;20009;-91
2022/01/14 15:59:37;;;;;;;20.38;9.32;;;6.90;76.40;;;;;;6173472;23;20416;-91
2022/01/14 16:02:03;;;;;;;20.83;9.55;;;6.90;76.30;;;;;;6169631;23;20012;-91
2022/01/14 16:04:28;;;;;;;19.88;9.73;;;6.90;76.30;;;;;;6140456;23;20341;-91
2022/01/14 16:06:54;;;;;;;19.77;8.32;;;6.90;76.30;;;;;;6139803;23;20012;-90
2022/01/14 16:09:20;;;;;;;24.83;9.38;;;6.90;76.30;;;;;;6142238;23;20028;-90
2022/01/14 16:11:46;;;;;;;25.73;9.80;;;6.90;76.30;;;;;;6144614;23;20233;-91
2022/01/14 16:14:26;;;;;;;21.67;9.73;;;6.90;76.30;;;;;;6143222;23;20025;-91
2022/01/14 16:16:52;;;;;;;22.88;10.13;;;6.90;76.20;;;;;;6169756;23;20444;-91
2022/01/14 16:19:18;;;;;;;26.45;11.80;;;6.90;76.20;;;;;;6147823;23;20029;-91
2022/01/14 16:21:45;;;;;;;24.95;11.48;;;6.90;76.20;;;;;;6142472;23;20012;-93
2022/01/14 16:24:11;;;;;;;28.15;11.90;;;6.90;76.10;;;;;;6164383;23;20009;-91
2022/01/14 16:26:37;;;;;;;26.33;11.45;;;7.10;76.20;;;;;;6168391;23;20084;-92
2022/01/14 16:29:04;;;;;;;28.50;11.32;;;7.20;76.20;;;;;;6144991;23;20017;-91
2022/01/14 16:31:30;;;;;;;26.30;12.13;;;7.10;76.60;;;;;;6143608;23;20043;-92
2022/01/14 16:33:57;;;;;;;22.92;10.52;;;6.90;75.90;;;;;;6140597;23;20012;-91
2022/01/14 16:36:23;;;;;;;30.50;13.60;;;6.90;75.90;;;;;;6167129;23;20063;-91
2022/01/14 16:38:49;;;;;;;43.42;15.40;;;6.90;75.90;;;;;;6164335;23;20468;-91
2022/01/14 16:41:15;;;;;;;38.50;15.15;;;7.20;76.10;;;;;;6165625;23;20502;-91
2022/01/14 16:43:41;;;;;;;25.35;10.98;;;6.90;75.90;;;;;;6139694;23;20342;-91
2022/01/14 16:46:07;;;;;;;28.45;12.77;;;6.90;75.90;;;;;;6138267;23;20051;-92
2022/01/14 16:48:34;;;;;;;25.08;11.73;;;6.90;75.80;;;;;;6164046;23;20021;-91
2022/01/14 16:51:00;;;;;;;35.15;14.18;;;6.90;75.80;;;;;;6140866;23;20012;-91
2022/01/14 16:53:30;;;;;;;36.47;15.02;;;6.90;75.70;;;;;;6138916;23;20013;-92
2022/01/14 16:56:03;;;;;;;35.75;14.48;;;7.20;75.90;;;;;;6161991;23;20441;-91
2022/01/14 16:58:29;;;;;;;25.02;12.73;;;6.90;75.70;;;;;;6163238;23;20021;-90
2022/01/14 17:00:55;;;;;;;23.75;11.77;;;6.90;75.70;;;;;;6139340;23;20574;-93
2022/01/14 17:03:22;;;;;;;47.83;17.02;;;7.10;75.80;;;;;;6137849;23;20013;-92
2022/01/14 17:05:48;;;;;;;61.45;22.23;;;6.90;75.60;;;;;;6138442;23;20032;-93
2022/01/14 17:08:14;;;;;;;50.10;20.83;;;6.90;75.70;;;;;;6166894;23;20017;-89
2022/01/14 17:10:40;;;;;;;35.22;15.07;;;6.90;75.50;;;;;;6164383;23;20009;-92
2022/01/14 17:13:13;;;;;;;42.72;17.23;;;6.80;75.40;;;;;;6164248;23;20028;-91